sensor_id;sensor_type;location;lat;lon;timestamp;pressure;altitude;pressure_sealevel;temperature;humidity
5053;BME280;2545;50.892;5.740;2023-02-04T00:00:16;56441.53;;;-142.21;100.00
5053;BME280;2545;50.892;5.740;2023-02-04T00:02:41;56425.84;;;-142.21;100.00
5053;BME280;2545;50.892;5.740;2023-02-04T00:05:09;56410.16;;;-142.21;100.00
5053;BME280;2545;50.892;5.740;2023-02-04T00:07:35;56445.44;;;-142.21;100.00
5053;BME280;2545;50.892;5.740;2023-02-04T00:10:01;56402.31;;;-142.21;100.00
5053;BME280;2545;50.892;5.740;2023-02-04T00:12:26;56388.59;;;-142.21;100.00
5053;BME280;2545;50.892;5.740;2023-02-04T00:14:52;56406.22;;;-142.21;100.00
5053;BME280;2545;50.892;5.740;2023-02-04T00:17:17;56425.84;;;-142.21;100.00
5053;BME280;2545;50.892;5.740;2023-02-04T00:19:42;56435.66;;;-142.21;100.00
5053;BME280;2545;50.892;5.740;2023-02-04T00:22:08;56443.50;;;-142.21;100.00
5053;BME280;2545;50.892;5.740;2023-02-04T00:24:34;56453.28;;;-142.21;100.00
5053;BME280;2545;50.892;5.740;2023-02-04T00:27:00;56461.13;;;-142.21;100.00
5053;BME280;2545;50.892;5.740;2023-02-04T00:29:25;56410.16;;;-142.21;100.00
5053;BME280;2545;50.892;5.740;2023-02-04T00:31:51;56412.13;;;-142.21;100.00
5053;BME280;2545;50.892;5.740;2023-02-04T00:34:16;56433.69;;;-142.21;100.00
5053;BME280;2545;50.892;5.740;2023-02-04T00:36:42;56427.81;;;-142.21;100.00
5053;BME280;2545;50.892;5.740;2023-02-04T00:39:08;56445.44;;;-142.21;100.00
5053;BME280;2545;50.892;5.740;2023-02-04T00:41:33;56406.22;;;-142.21;100.00
5053;BME280;2545;50.892;5.740;2023-02-04T00:43:59;56425.84;;;-142.21;100.00
5053;BME280;2545;50.892;5.740;2023-02-04T00:46:24;56441.53;;;-142.21;100.00
5053;BME280;2545;50.892;5.740;2023-02-04T00:48:49;56404.28;;;-142.21;100.00
5053;BME280;2545;50.892;5.740;2023-02-04T00:51:15;56427.81;;;-142.21;100.00
5053;BME280;2545;50.892;5.740;2023-02-04T00:53:40;56400.34;;;-142.21;100.00
5053;BME280;2545;50.892;5.740;2023-02-04T00:56:05;56433.69;;;-142.21;100.00
5053;BME280;2545;50.892;5.740;2023-02-04T00:58:31;56427.81;;;-142.21;100.00
5053;BME280;2545;50.892;5.740;2023-02-04T01:00:56;56445.44;;;-142.21;100.00
5053;BME280;2545;50.892;5.740;2023-02-04T01:03:21;56421.91;;;-142.21;100.00
5053;BME280;2545;50.892;5.740;2023-02-04T01:05:47;56402.31;;;-142.21;100.00
5053;BME280;2545;50.892;5.740;2023-02-04T01:08:12;56410.16;;;-142.21;100.00
5053;BME280;2545;50.892;5.740;2023-02-04T01:10:37;56439.56;;;-142.21;100.00
5053;BME280;2545;50.892;5.740;2023-02-04T01:13:03;56398.38;;;-142.21;100.00
5053;BME280;2545;50.892;5.740;2023-02-04T01:15:28;56398.38;;;-142.21;100.00
5053;BME280;2545;50.892;5.740;2023-02-04T01:17:53;56421.91;;;-142.21;100.00
5053;BME280;2545;50.892;5.740;2023-02-04T01:20:19;56398.38;;;-142.21;100.00
5053;BME280;2545;50.892;5.740;2023-02-04T01:22:44;56453.28;;;-142.21;100.00
5053;BME280;2545;50.892;5.740;2023-02-04T01:25:09;56419.97;;;-142.21;100.00
5053;BME280;2545;50.892;5.740;2023-02-04T01:27:35;56418.00;;;-142.21;100.00
5053;BME280;2545;50.892;5.740;2023-02-04T01:30:00;56416.03;;;-142.21;100.00
5053;BME280;2545;50.892;5.740;2023-02-04T01:32:25;56410.16;;;-142.21;100.00
5053;BME280;2545;50.892;5.740;2023-02-04T01:34:51;56423.88;;;-142.21;100.00
5053;BME280;2545;50.892;5.740;2023-02-04T01:37:16;56431.72;;;-142.21;100.00
5053;BME280;2545;50.892;5.740;2023-02-04T01:39:42;56421.91;;;-142.21;100.00
5053;BME280;2545;50.892;5.740;2023-02-04T01:42:07;56435.66;;;-142.21;100.00
5053;BME280;2545;50.892;5.740;2023-02-04T01:44:33;56429.75;;;-142.21;100.00
5053;BME280;2545;50.892;5.740;2023-02-04T01:46:58;56412.13;;;-142.21;100.00
5053;BME280;2545;50.892;5.740;2023-02-04T01:49:24;56386.63;;;-142.21;100.00
5053;BME280;2545;50.892;5.740;2023-02-04T01:51:50;56435.66;;;-142.21;100.00
5053;BME280;2545;50.892;5.740;2023-02-04T01:54:15;56414.06;;;-142.21;100.00
5053;BME280;2545;50.892;5.740;2023-02-04T01:56:46;56386.63;;;-142.21;100.00
5053;BME280;2545;50.892;5.740;2023-02-04T01:59:14;56427.81;;;-142.21;100.00
5053;BME280;2545;50.892;5.740;2023-02-04T02:01:48;56423.88;;;-142.21;100.00
5053;BME280;2545;50.892;5.740;2023-02-04T02:04:17;56406.22;;;-142.21;100.00
5053;BME280;2545;50.892;5.740;2023-02-04T02:06:53;56439.56;;;-142.21;100.00
5053;BME280;2545;50.892;5.740;2023-02-04T02:09:19;56429.75;;;-142.21;100.00
5053;BME280;2545;50.892;5.740;2023-02-04T02:11:45;56457.22;;;-142.21;100.00
5053;BME280;2545;50.892;5.740;2023-02-04T02:14:11;56406.22;;;-142.21;100.00
5053;BME280;2545;50.892;5.740;2023-02-04T02:16:36;56427.81;;;-142.21;100.00
5053;BME280;2545;50.892;5.740;2023-02-04T02:19:02;56457.22;;;-142.21;100.00
5053;BME280;2545;50.892;5.740;2023-02-04T02:21:41;56400.34;;;-142.21;100.00
5053;BME280;2545;50.892;5.740;2023-02-04T02:24:35;56421.91;;;-142.21;100.00
5053;BME280;2545;50.892;5.740;2023-02-04T02:27:03;56414.06;;;-142.21;100.00
5053;BME280;2545;50.892;5.740;2023-02-04T02:29:29;56433.69;;;-142.21;100.00
5053;BME280;2545;50.892;5.740;2023-02-04T02:31:55;56416.03;;;-142.21;100.00
5053;BME280;2545;50.892;5.740;2023-02-04T02:34:23;56400.34;;;-142.21;100.00
5053;BME280;2545;50.892;5.740;2023-02-04T02:36:48;56433.69;;;-142.21;100.00
5053;BME280;2545;50.892;5.740;2023-02-04T02:39:14;56370.94;;;-142.21;100.00
5053;BME280;2545;50.892;5.740;2023-02-04T02:41:39;56425.84;;;-142.21;100.00
5053;BME280;2545;50.892;5.740;2023-02-04T02:44:05;56427.81;;;-142.21;100.00
5053;BME280;2545;50.892;5.740;2023-02-04T02:46:31;56431.72;;;-142.21;100.00
5053;BME280;2545;50.892;5.740;2023-02-04T02:48:56;56404.28;;;-142.21;100.00
5053;BME280;2545;50.892;5.740;2023-02-04T02:51:22;56408.19;;;-142.21;100.00
5053;BME280;2545;50.892;5.740;2023-02-04T02:53:48;56392.50;;;-142.21;100.00
5053;BME280;2545;50.892;5.740;2023-02-04T02:56:15;56376.81;;;-142.21;100.00
5053;BME280;2545;50.892;5.740;2023-02-04T02:58:40;56427.81;;;-142.21;100.00
5053;BME280;2545;50.892;5.740;2023-02-04T03:01:07;56386.63;;;-142.21;100.00
5053;BME280;2545;50.892;5.740;2023-02-04T03:03:36;56441.53;;;-142.21;100.00
5053;BME280;2545;50.892;5.740;2023-02-04T03:06:09;56421.91;;;-142.21;100.00
5053;BME280;2545;50.892;5.740;2023-02-04T03:08:36;56414.06;;;-142.21;100.00
5053;BME280;2545;50.892;5.740;2023-02-04T03:11:01;56412.13;;;-142.21;100.00
5053;BME280;2545;50.892;5.740;2023-02-04T03:13:27;56402.31;;;-142.21;100.00
5053;BME280;2545;50.892;5.740;2023-02-04T03:15:52;56427.81;;;-142.21;100.00
5053;BME280;2545;50.892;5.740;2023-02-04T03:18:19;56402.31;;;-142.21;100.00
5053;BME280;2545;50.892;5.740;2023-02-04T03:20:45;56412.13;;;-142.21;100.00
5053;BME280;2545;50.892;5.740;2023-02-04T03:23:10;56418.00;;;-142.21;100.00
5053;BME280;2545;50.892;5.740;2023-02-04T03:25:36;56416.03;;;-142.21;100.00
5053;BME280;2545;50.892;5.740;2023-02-04T03:28:02;56439.56;;;-142.21;100.00
5053;BME280;2545;50.892;5.740;2023-02-04T03:30:27;56386.63;;;-142.21;100.00
5053;BME280;2545;50.892;5.740;2023-02-04T03:32:53;56427.81;;;-142.21;100.00
5053;BME280;2545;50.892;5.740;2023-02-04T03:35:19;56435.66;;;-142.21;100.00
5053;BME280;2545;50.892;5.740;2023-02-04T03:37:44;56419.97;;;-142.21;100.00
5053;BME280;2545;50.892;5.740;2023-02-04T03:40:10;56410.16;;;-142.21;100.00
5053;BME280;2545;50.892;5.740;2023-02-04T03:42:36;56414.06;;;-142.21;100.00
5053;BME280;2545;50.892;5.740;2023-02-04T03:45:01;56441.53;;;-142.21;100.00
5053;BME280;2545;50.892;5.740;2023-02-04T03:47:26;56396.44;;;-142.21;100.00
5053;BME280;2545;50.892;5.740;2023-02-04T03:49:52;56441.53;;;-142.21;100.00
5053;BME280;2545;50.892;5.740;2023-02-04T03:52:17;56418.00;;;-142.21;100.00
5053;BME280;2545;50.892;5.740;2023-02-04T03:54:44;56435.66;;;-142.21;100.00
5053;BME280;2545;50.892;5.740;2023-02-04T03:57:09;56433.69;;;-142.21;100.00
5053;BME280;2545;50.892;5.740;2023-02-04T03:59:35;56412.13;;;-142.21;100.00
5053;BME280;2545;50.892;5.740;2023-02-04T04:02:00;56429.75;;;-142.21;100.00
5053;BME280;2545;50.892;5.740;2023-02-04T04:04:25;56423.88;;;-142.21;100.00
5053;BME280;2545;50.892;5.740;2023-02-04T04:06:51;56418.00;;;-142.21;100.00
5053;BME280;2545;50.892;5.740;2023-02-04T04:09:16;56404.28;;;-142.21;100.00
5053;BME280;2545;50.892;5.740;2023-02-04T04:11:41;56439.56;;;-142.21;100.00
5053;BME280;2545;50.892;5.740;2023-02-04T04:14:06;56435.66;;;-142.21;100.00
5053;BME280;2545;50.892;5.740;2023-02-04T04:16:32;56441.53;;;-142.21;100.00
5053;BME280;2545;50.892;5.740;2023-02-04T04:18:57;56437.59;;;-142.21;100.00
5053;BME280;2545;50.892;5.740;2023-02-04T04:21:22;56414.06;;;-142.21;100.00
5053;BME280;2545;50.892;5.740;2023-02-04T04:23:48;56427.81;;;-142.21;100.00
5053;BME280;2545;50.892;5.740;2023-02-04T04:26:13;56414.06;;;-142.21;100.00
5053;BME280;2545;50.892;5.740;2023-02-04T04:28:38;56406.22;;;-142.21;100.00
5053;BME280;2545;50.892;5.740;2023-02-04T04:31:04;56437.59;;;-142.21;100.00
5053;BME280;2545;50.892;5.740;2023-02-04T04:33:29;56435.66;;;-142.21;100.00
5053;BME280;2545;50.892;5.740;2023-02-04T04:35:55;56453.28;;;-142.21;100.00
5053;BME280;2545;50.892;5.740;2023-02-04T04:38:20;56429.75;;;-142.21;100.00
5053;BME280;2545;50.892;5.740;2023-02-04T04:40:45;56425.84;;;-142.21;100.00
5053;BME280;2545;50.892;5.740;2023-02-04T04:43:10;56414.06;;;-142.21;100.00
5053;BME280;2545;50.892;5.740;2023-02-04T04:45:36;56423.88;;;-142.21;100.00
5053;BME280;2545;50.892;5.740;2023-02-04T04:48:01;56439.56;;;-142.21;100.00
5053;BME280;2545;50.892;5.740;2023-02-04T04:50:27;56419.97;;;-142.21;100.00
5053;BME280;2545;50.892;5.740;2023-02-04T04:52:52;56406.22;;;-142.21;100.00
5053;BME280;2545;50.892;5.740;2023-02-04T04:55:17;56431.72;;;-142.21;100.00
5053;BME280;2545;50.892;5.740;2023-02-04T04:57:43;56488.59;;;-142.21;100.00
5053;BME280;2545;50.892;5.740;2023-02-04T05:00:13;56416.03;;;-142.21;100.00
5053;BME280;2545;50.892;5.740;2023-02-04T05:02:39;56390.53;;;-142.21;100.00
5053;BME280;2545;50.892;5.740;2023-02-04T05:05:05;56447.41;;;-142.21;100.00
5053;BME280;2545;50.892;5.740;2023-02-04T05:07:30;56441.53;;;-142.21;100.00
5053;BME280;2545;50.892;5.740;2023-02-04T05:09:55;56414.06;;;-142.21;100.00
5053;BME280;2545;50.892;5.740;2023-02-04T05:12:21;56414.06;;;-142.21;100.00
5053;BME280;2545;50.892;5.740;2023-02-04T05:14:46;56400.34;;;-142.21;100.00
5053;BME280;2545;50.892;5.740;2023-02-04T05:17:11;56414.06;;;-142.21;100.00
5053;BME280;2545;50.892;5.740;2023-02-04T05:19:37;56421.91;;;-142.21;100.00
5053;BME280;2545;50.892;5.740;2023-02-04T05:22:02;56433.69;;;-142.21;100.00
5053;BME280;2545;50.892;5.740;2023-02-04T05:24:27;56429.75;;;-142.21;100.00
5053;BME280;2545;50.892;5.740;2023-02-04T05:26:53;56429.75;;;-142.21;100.00
5053;BME280;2545;50.892;5.740;2023-02-04T05:29:18;56396.44;;;-142.21;100.00
5053;BME280;2545;50.892;5.740;2023-02-04T05:31:43;56402.31;;;-142.21;100.00
5053;BME280;2545;50.892;5.740;2023-02-04T05:34:08;56398.38;;;-142.21;100.00
5053;BME280;2545;50.892;5.740;2023-02-04T05:36:34;56447.41;;;-142.21;100.00
5053;BME280;2545;50.892;5.740;2023-02-04T05:38:59;56421.91;;;-142.21;100.00
5053;BME280;2545;50.892;5.740;2023-02-04T05:41:24;56402.31;;;-142.21;100.00
5053;BME280;2545;50.892;5.740;2023-02-04T05:43:50;56429.75;;;-142.21;100.00
5053;BME280;2545;50.892;5.740;2023-02-04T05:46:16;56404.28;;;-142.21;100.00
5053;BME280;2545;50.892;5.740;2023-02-04T05:48:41;56441.53;;;-142.21;100.00
5053;BME280;2545;50.892;5.740;2023-02-04T05:51:06;56390.53;;;-142.21;100.00
5053;BME280;2545;50.892;5.740;2023-02-04T05:53:32;56439.56;;;-142.21;100.00
5053;BME280;2545;50.892;5.740;2023-02-04T05:55:57;56443.50;;;-142.21;100.00
5053;BME280;2545;50.892;5.740;2023-02-04T05:58:22;56431.72;;;-142.21;100.00
5053;BME280;2545;50.892;5.740;2023-02-04T06:00:48;56414.06;;;-142.21;100.00
5053;BME280;2545;50.892;5.740;2023-02-04T06:03:13;56437.59;;;-142.21;100.00
5053;BME280;2545;50.892;5.740;2023-02-04T06:05:39;56421.91;;;-142.21;100.00
5053;BME280;2545;50.892;5.740;2023-02-04T06:08:05;56419.97;;;-142.21;100.00
5053;BME280;2545;50.892;5.740;2023-02-04T06:10:30;56425.84;;;-142.21;100.00
5053;BME280;2545;50.892;5.740;2023-02-04T06:12:55;56406.22;;;-142.21;100.00
5053;BME280;2545;50.892;5.740;2023-02-04T06:15:21;56421.91;;;-142.21;100.00
5053;BME280;2545;50.892;5.740;2023-02-04T06:17:46;56431.72;;;-142.21;100.00
5053;BME280;2545;50.892;5.740;2023-02-04T06:20:13;56437.59;;;-142.21;100.00
5053;BME280;2545;50.892;5.740;2023-02-04T06:22:38;56412.13;;;-142.21;100.00
5053;BME280;2545;50.892;5.740;2023-02-04T06:25:04;56429.75;;;-142.21;100.00
5053;BME280;2545;50.892;5.740;2023-02-04T06:27:29;56423.88;;;-142.21;100.00
5053;BME280;2545;50.892;5.740;2023-02-04T06:29:54;56392.50;;;-142.21;100.00
5053;BME280;2545;50.892;5.740;2023-02-04T06:32:21;56427.81;;;-142.21;100.00
5053;BME280;2545;50.892;5.740;2023-02-04T06:34:48;56394.47;;;-142.21;100.00
5053;BME280;2545;50.892;5.740;2023-02-04T06:37:13;56386.63;;;-142.21;100.00
5053;BME280;2545;50.892;5.740;2023-02-04T06:39:41;56435.66;;;-142.21;100.00
5053;BME280;2545;50.892;5.740;2023-02-04T06:42:07;56443.50;;;-142.21;100.00
5053;BME280;2545;50.892;5.740;2023-02-04T06:44:32;56412.13;;;-142.21;100.00
5053;BME280;2545;50.892;5.740;2023-02-04T06:46:58;56392.50;;;-142.21;100.00
5053;BME280;2545;50.892;5.740;2023-02-04T06:49:23;56429.75;;;-142.21;100.00
5053;BME280;2545;50.892;5.740;2023-02-04T06:51:49;56394.47;;;-142.21;100.00
5053;BME280;2545;50.892;5.740;2023-02-04T06:54:15;56416.03;;;-142.21;100.00
5053;BME280;2545;50.892;5.740;2023-02-04T06:56:40;56410.16;;;-142.21;100.00
5053;BME280;2545;50.892;5.740;2023-02-04T06:59:07;56419.97;;;-142.21;100.00
5053;BME280;2545;50.892;5.740;2023-02-04T07:01:33;56429.75;;;-142.21;100.00
5053;BME280;2545;50.892;5.740;2023-02-04T07:03:58;56447.41;;;-142.21;100.00
5053;BME280;2545;50.892;5.740;2023-02-04T07:06:23;56421.91;;;-142.21;100.00
5053;BME280;2545;50.892;5.740;2023-02-04T07:08:48;56468.97;;;-142.21;100.00
5053;BME280;2545;50.892;5.740;2023-02-04T07:11:14;56390.53;;;-142.21;100.00
5053;BME280;2545;50.892;5.740;2023-02-04T07:13:39;56445.44;;;-142.21;100.00
5053;BME280;2545;50.892;5.740;2023-02-04T07:16:05;56412.13;;;-142.21;100.00
5053;BME280;2545;50.892;5.740;2023-02-04T07:18:31;56394.47;;;-142.21;100.00
5053;BME280;2545;50.892;5.740;2023-02-04T07:20:56;56404.28;;;-142.21;100.00
5053;BME280;2545;50.892;5.740;2023-02-04T07:23:22;56410.16;;;-142.21;100.00
5053;BME280;2545;50.892;5.740;2023-02-04T07:25:49;56435.66;;;-142.21;100.00
5053;BME280;2545;50.892;5.740;2023-02-04T07:28:14;56410.16;;;-142.21;100.00
5053;BME280;2545;50.892;5.740;2023-02-04T07:30:39;56412.13;;;-142.21;100.00
5053;BME280;2545;50.892;5.740;2023-02-04T07:33:05;56419.97;;;-142.21;100.00
5053;BME280;2545;50.892;5.740;2023-02-04T07:35:30;56406.22;;;-142.21;100.00
5053;BME280;2545;50.892;5.740;2023-02-04T07:37:55;56461.13;;;-142.21;100.00
5053;BME280;2545;50.892;5.740;2023-02-04T07:40:20;56412.13;;;-142.21;100.00
5053;BME280;2545;50.892;5.740;2023-02-04T07:42:46;56402.31;;;-142.21;100.00
5053;BME280;2545;50.892;5.740;2023-02-04T07:45:11;56425.84;;;-142.21;100.00
5053;BME280;2545;50.892;5.740;2023-02-04T07:47:37;56427.81;;;-142.21;100.00
5053;BME280;2545;50.892;5.740;2023-02-04T07:50:03;56425.84;;;-142.21;100.00
5053;BME280;2545;50.892;5.740;2023-02-04T07:52:28;56423.88;;;-142.21;100.00
5053;BME280;2545;50.892;5.740;2023-02-04T07:54:54;56427.81;;;-142.21;100.00
5053;BME280;2545;50.892;5.740;2023-02-04T07:57:19;56414.06;;;-142.21;100.00
5053;BME280;2545;50.892;5.740;2023-02-04T07:59:44;56423.88;;;-142.21;100.00
5053;BME280;2545;50.892;5.740;2023-02-04T08:02:10;56423.88;;;-142.21;100.00
5053;BME280;2545;50.892;5.740;2023-02-04T08:04:35;56425.84;;;-142.21;100.00
5053;BME280;2545;50.892;5.740;2023-02-04T08:07:02;56408.19;;;-142.21;100.00
5053;BME280;2545;50.892;5.740;2023-02-04T08:09:28;56425.84;;;-142.21;100.00
5053;BME280;2545;50.892;5.740;2023-02-04T08:11:53;56410.16;;;-142.21;100.00
5053;BME280;2545;50.892;5.740;2023-02-04T08:14:19;56453.28;;;-142.21;100.00
5053;BME280;2545;50.892;5.740;2023-02-04T08:16:44;56435.66;;;-142.21;100.00
5053;BME280;2545;50.892;5.740;2023-02-04T08:19:09;56410.16;;;-142.21;100.00
5053;BME280;2545;50.892;5.740;2023-02-04T08:21:35;56441.53;;;-142.21;100.00
5053;BME280;2545;50.892;5.740;2023-02-04T08:24:01;56394.47;;;-142.21;100.00
5053;BME280;2545;50.892;5.740;2023-02-04T08:26:26;56451.34;;;-142.21;100.00
5053;BME280;2545;50.892;5.740;2023-02-04T08:28:51;56419.97;;;-142.21;100.00
5053;BME280;2545;50.892;5.740;2023-02-04T08:31:17;56449.38;;;-142.21;100.00
5053;BME280;2545;50.892;5.740;2023-02-04T08:33:42;56406.22;;;-142.21;100.00
5053;BME280;2545;50.892;5.740;2023-02-04T08:36:07;56425.84;;;-142.21;100.00
5053;BME280;2545;50.892;5.740;2023-02-04T08:38:33;56404.28;;;-142.21;100.00
5053;BME280;2545;50.892;5.740;2023-02-04T08:40:58;56418.00;;;-142.21;100.00
5053;BME280;2545;50.892;5.740;2023-02-04T08:43:25;56419.97;;;-142.21;100.00
5053;BME280;2545;50.892;5.740;2023-02-04T08:45:50;56431.72;;;-142.21;100.00
5053;BME280;2545;50.892;5.740;2023-02-04T08:48:15;56414.06;;;-142.21;100.00
5053;BME280;2545;50.892;5.740;2023-02-04T08:50:41;56374.84;;;-142.21;100.00
5053;BME280;2545;50.892;5.740;2023-02-04T08:53:06;56410.16;;;-142.21;100.00
5053;BME280;2545;50.892;5.740;2023-02-04T08:55:31;56423.88;;;-142.21;100.00
5053;BME280;2545;50.892;5.740;2023-02-04T08:57:57;56488.59;;;-142.21;100.00
5053;BME280;2545;50.892;5.740;2023-02-04T09:00:23;56457.22;;;-142.21;100.00
5053;BME280;2545;50.892;5.740;2023-02-04T09:02:49;56421.91;;;-142.21;100.00
5053;BME280;2545;50.892;5.740;2023-02-04T09:05:14;56416.03;;;-142.21;100.00
5053;BME280;2545;50.892;5.740;2023-02-04T09:07:40;56402.31;;;-142.21;100.00
5053;BME280;2545;50.892;5.740;2023-02-04T09:10:05;56408.19;;;-142.21;100.00
5053;BME280;2545;50.892;5.740;2023-02-04T09:12:31;56449.38;;;-142.21;100.00
5053;BME280;2545;50.892;5.740;2023-02-04T09:14:56;56410.16;;;-142.21;100.00
5053;BME280;2545;50.892;5.740;2023-02-04T09:17:21;56408.19;;;-142.21;100.00
5053;BME280;2545;50.892;5.740;2023-02-04T09:19:47;56437.59;;;-142.21;100.00
5053;BME280;2545;50.892;5.740;2023-02-04T09:22:12;56402.31;;;-142.21;100.00
5053;BME280;2545;50.892;5.740;2023-02-04T09:24:38;56402.31;;;-142.21;100.00
5053;BME280;2545;50.892;5.740;2023-02-04T09:27:03;56419.97;;;-142.21;100.00
5053;BME280;2545;50.892;5.740;2023-02-04T09:29:28;56394.47;;;-142.21;100.00
5053;BME280;2545;50.892;5.740;2023-02-04T09:31:54;56421.91;;;-142.21;100.00
5053;BME280;2545;50.892;5.740;2023-02-04T09:34:19;56427.81;;;-142.21;100.00
5053;BME280;2545;50.892;5.740;2023-02-04T09:36:44;56410.16;;;-142.21;100.00
5053;BME280;2545;50.892;5.740;2023-02-04T09:39:10;56447.41;;;-142.21;100.00
5053;BME280;2545;50.892;5.740;2023-02-04T09:41:37;56408.19;;;-142.21;100.00
5053;BME280;2545;50.892;5.740;2023-02-04T09:44:04;56445.44;;;-142.21;100.00
5053;BME280;2545;50.892;5.740;2023-02-04T09:46:31;56425.84;;;-142.21;100.00
5053;BME280;2545;50.892;5.740;2023-02-04T09:48:57;56441.53;;;-142.21;100.00
5053;BME280;2545;50.892;5.740;2023-02-04T09:51:28;56437.59;;;-142.21;100.00
5053;BME280;2545;50.892;5.740;2023-02-04T09:54:01;56429.75;;;-142.21;100.00
5053;BME280;2545;50.892;5.740;2023-02-04T09:56:29;56410.16;;;-142.21;100.00
5053;BME280;2545;50.892;5.740;2023-02-04T09:58:55;56443.50;;;-142.21;100.00
5053;BME280;2545;50.892;5.740;2023-02-04T10:01:20;56439.56;;;-142.21;100.00
5053;BME280;2545;50.892;5.740;2023-02-04T10:03:47;56390.53;;;-142.21;100.00
5053;BME280;2545;50.892;5.740;2023-02-04T10:06:16;56419.97;;;-142.21;100.00
5053;BME280;2545;50.892;5.740;2023-02-04T10:08:42;56421.91;;;-142.21;100.00
5053;BME280;2545;50.892;5.740;2023-02-04T10:11:09;56408.19;;;-142.21;100.00
5053;BME280;2545;50.892;5.740;2023-02-04T10:13:41;56372.91;;;-142.21;100.00
5053;BME280;2545;50.892;5.740;2023-02-04T10:16:16;56429.75;;;-142.21;100.00
5053;BME280;2545;50.892;5.740;2023-02-04T10:18:43;56378.78;;;-142.21;100.00
5053;BME280;2545;50.892;5.740;2023-02-04T10:21:25;56435.66;;;-142.21;100.00
5053;BME280;2545;50.892;5.740;2023-02-04T10:23:55;56412.13;;;-142.21;100.00
5053;BME280;2545;50.892;5.740;2023-02-04T10:26:22;56418.00;;;-142.21;100.00
5053;BME280;2545;50.892;5.740;2023-02-04T10:28:48;56429.75;;;-142.21;100.00
5053;BME280;2545;50.892;5.740;2023-02-04T10:34:03;56431.72;;;-142.21;100.00
5053;BME280;2545;50.892;5.740;2023-02-04T10:36:29;56427.81;;;-142.21;100.00
5053;BME280;2545;50.892;5.740;2023-02-04T10:39:13;56419.97;;;-142.21;100.00
5053;BME280;2545;50.892;5.740;2023-02-04T10:41:56;56382.69;;;-142.21;100.00
5053;BME280;2545;50.892;5.740;2023-02-04T10:44:25;56447.41;;;-142.21;100.00
5053;BME280;2545;50.892;5.740;2023-02-04T10:46:58;56445.44;;;-142.21;100.00
5053;BME280;2545;50.892;5.740;2023-02-04T10:49:24;56402.31;;;-142.21;100.00
5053;BME280;2545;50.892;5.740;2023-02-04T10:51:51;56427.81;;;-142.21;100.00
5053;BME280;2545;50.892;5.740;2023-02-04T10:54:19;56435.66;;;-142.21;100.00
5053;BME280;2545;50.892;5.740;2023-02-04T10:57:21;56427.81;;;-142.21;100.00
5053;BME280;2545;50.892;5.740;2023-02-04T10:59:49;56404.28;;;-142.21;100.00
5053;BME280;2545;50.892;5.740;2023-02-04T11:04:56;56433.69;;;-142.21;100.00
5053;BME280;2545;50.892;5.740;2023-02-04T11:07:22;56437.59;;;-142.21;100.00
5053;BME280;2545;50.892;5.740;2023-02-04T11:09:47;56429.75;;;-142.21;100.00
5053;BME280;2545;50.892;5.740;2023-02-04T11:12:42;56427.81;;;-142.21;100.00
5053;BME280;2545;50.892;5.740;2023-02-04T11:15:45;56392.50;;;-142.21;100.00
5053;BME280;2545;50.892;5.740;2023-02-04T11:20:48;56408.19;;;-142.21;99.08
5053;BME280;2545;50.892;5.740;2023-02-04T11:26:15;56392.50;;;-142.21;98.73
5053;BME280;2545;50.892;5.740;2023-02-04T11:29:48;56423.88;;;-142.21;94.93
5053;BME280;2545;50.892;5.740;2023-02-04T11:32:26;56367.00;;;-142.21;94.08
5053;BME280;2545;50.892;5.740;2023-02-04T11:34:52;56410.16;;;-142.21;94.53
5053;BME280;2545;50.892;5.740;2023-02-04T11:37:33;56406.22;;;-142.21;92.30
5053;BME280;2545;50.892;5.740;2023-02-04T11:40:00;56400.34;;;-142.21;91.70
5053;BME280;2545;50.892;5.740;2023-02-04T11:42:31;56380.75;;;-142.21;87.10
5053;BME280;2545;50.892;5.740;2023-02-04T11:44:59;56408.19;;;-142.21;84.55
5053;BME280;2545;50.892;5.740;2023-02-04T11:47:26;56410.16;;;-142.21;86.24
5053;BME280;2545;50.892;5.740;2023-02-04T11:49:55;56410.16;;;-142.21;82.51
5053;BME280;2545;50.892;5.740;2023-02-04T11:52:21;56392.50;;;-142.21;78.36
5053;BME280;2545;50.892;5.740;2023-02-04T11:54:57;56410.16;;;-142.21;79.48
5053;BME280;2545;50.892;5.740;2023-02-04T11:57:22;56376.81;;;-142.21;74.68
5053;BME280;2545;50.892;5.740;2023-02-04T11:59:47;56376.81;;;-142.21;77.92
5053;BME280;2545;50.892;5.740;2023-02-04T12:02:18;56370.94;;;-142.21;76.68
5053;BME280;2545;50.892;5.740;2023-02-04T12:04:52;56418.00;;;-142.21;72.28
5053;BME280;2545;50.892;5.740;2023-02-04T12:07:26;56392.50;;;-142.21;72.21
5053;BME280;2545;50.892;5.740;2023-02-04T12:09:52;56363.09;;;-142.21;69.56
5053;BME280;2545;50.892;5.740;2023-02-04T12:12:28;56374.84;;;-142.21;67.65
5053;BME280;2545;50.892;5.740;2023-02-04T12:15:02;56370.94;;;-142.21;69.31
5053;BME280;2545;50.892;5.740;2023-02-04T12:17:28;56374.84;;;-142.21;68.14
5053;BME280;2545;50.892;5.740;2023-02-04T12:19:53;56367.00;;;-142.21;65.11
5053;BME280;2545;50.892;5.740;2023-02-04T12:22:18;56378.78;;;-142.21;63.36
5053;BME280;2545;50.892;5.740;2023-02-04T12:24:44;56370.94;;;-142.21;63.67
5053;BME280;2545;50.892;5.740;2023-02-04T12:27:09;56386.63;;;-142.21;65.05
5053;BME280;2545;50.892;5.740;2023-02-04T12:29:34;56384.66;;;-142.21;65.19
5053;BME280;2545;50.892;5.740;2023-02-04T12:32:00;56363.09;;;-142.21;67.35
5053;BME280;2545;50.892;5.740;2023-02-04T12:34:25;56359.16;;;-142.21;66.18
5053;BME280;2545;50.892;5.740;2023-02-04T12:36:50;56386.63;;;-142.21;69.73
5053;BME280;2545;50.892;5.740;2023-02-04T12:39:15;56374.84;;;-142.21;69.79
5053;BME280;2545;50.892;5.740;2023-02-04T12:41:41;56378.78;;;-142.21;70.73
5053;BME280;2545;50.892;5.740;2023-02-04T12:44:08;56349.38;;;-142.21;69.28
5053;BME280;2545;50.892;5.740;2023-02-04T12:46:33;56392.50;;;-142.21;69.94
5053;BME280;2545;50.892;5.740;2023-02-04T12:48:59;56374.84;;;-142.21;69.31
5053;BME280;2545;50.892;5.740;2023-02-04T12:51:24;56368.97;;;-142.21;64.20
5053;BME280;2545;50.892;5.740;2023-02-04T12:53:49;56365.06;;;-142.21;59.61
5053;BME280;2545;50.892;5.740;2023-02-04T12:56:15;56347.41;;;-142.21;56.96
5053;BME280;2545;50.892;5.740;2023-02-04T12:58:40;56400.34;;;-142.21;54.88